Latest Coastal Weather Observations for Bairnsdale

IDV60701

Issued at 5:32 pm EDT Thursday 19 January 2017 (issued every 10 minutes, with the page automatically refreshed every 10 minutes)

About coastal observations | Map of coastal stations | Coastal observations for VIC | Marine services | Other Formats
Station Details ID: 085279 Name: BAIRNSDALE AIRPORT Lat: -37.88 Lon: 147.57 Height: 49.4 m
Data from the previous 72 hours. | See also: Recent months at Bairnsdale
Date/Time
EDT
Temp
°C
Wind Pressure Rain since
9am
mm
Weather Cloud Vis
km
Sea
Height
m
Swell
Dir  Spd
kts
Gust
kts
hPa Trend Height
m
Period
s
Dir
19/05:30pm 22.3 E 17 23 1007.3 - 0.0 - - 10 - - - -
19/05:00pm 22.9 ESE 17 23 1008.0 - 0.0 - - 10 - - - -
19/04:30pm 22.2 ESE 17 23 1008.7 - 0.0 - - 10 - - - -
19/04:00pm 22.4 ESE 17 21 1009.3 - 0.0 - - 10 - - - -
19/03:30pm 21.9 ESE 16 22 1009.9 - 0.0 - - 10 - - - -
19/03:00pm 21.9 ESE 15 20 1010.4 - 0.0 - - 10 - - - -
19/02:30pm 21.7 ESE 16 21 1010.9 - 0.0 - - 10 - - - -
19/02:00pm 21.6 ESE 17 22 1011.3 - 0.0 - - 10 - - - -
19/01:30pm 21.2 ESE 15 22 1011.8 - 0.0 - - 10 - - - -
19/01:00pm 20.6 SE 14 20 1012.2 - 0.0 - - 10 - - - -
19/12:30pm 20.8 ESE 14 21 1012.7 - 0.0 - - 10 - - - -
19/12:00pm 20.4 ESE 13 19 1013.1 - 0.0 - - 10 - - - -
19/11:30am 20.3 ESE 13 21 1013.3 - 0.0 - - 10 - - - -
19/11:00am 19.6 ESE 13 19 1013.7 - 0.0 - Partly cloudy 10 - - - -
19/10:30am 19.2 E 9 15 1013.9 - 0.0 - Partly cloudy 10 - - - -
19/10:00am 18.8 E 12 16 1014.1 - 0.0 - - 10 - - - -
19/09:30am 17.7 E 9 14 1014.6 - 0.0 - - 10 - - - -
19/09:00am 17.0 ENE 7 9 1014.9 - 0.0 - - 10 - - - -
19/08:30am 15.7 ENE 4 5 1015.2 - 0.0 - - 10 - - - -
19/08:00am 13.0 N 3 4 1015.3 - 0.0 - - 10 - - - -
19/07:30am 10.5 WNW 3 4 1015.3 - 0.0 - - 10 - - - -
19/07:00am 8.2 NW 4 5 1015.3 - 0.0 - - 10 - - - -
19/06:30am 6.5 NW 5 5 1015.2 - 0.0 - - 10 - - - -
19/06:00am 6.6 NW 4 5 1015.0 - 0.0 - - 10 - - - -
19/05:30am 7.8 NW 5 6 1014.9 - 0.0 - - 10 - - - -
19/05:00am 7.7 WNW 4 5 1014.9 - 0.0 - - 10 - - - -
19/04:30am 7.4 NW 4 5 1014.9 - 0.0 - - 10 - - - -
19/04:00am 8.2 NW 4 6 1015.0 - 0.0 - - 10 - - - -
19/03:30am 8.9 NW 6 7 1015.3 - 0.0 - Partly cloudy 10 - - - -
19/03:00am 8.9 NW 5 6 1015.7 - 0.0 - Partly cloudy 10 - - - -
19/02:30am 8.9 NW 6 7 1016.0 - 0.0 - Partly cloudy 10 - - - -
19/02:00am 8.3 NW 5 6 1016.2 - 0.0 - - 10 - - - -
19/01:30am 9.6 NW 6 8 1016.6 - 0.0 - - 10 - - - -
19/01:00am 9.8 NW 6 7 1016.9 - 0.0 - - 10 - - - -
19/12:30am 10.1 NW 5 6 1017.1 - 0.0 - - 10 - - - -
19/12:00am 10.2 NW 5 7 1017.2 - 0.0 - - 10 - - - -
 
Date/Time
EDT
Temp
°C
Wind Pressure Rain since
9am
mm
Weather Cloud Vis
km
Sea
Height
m
Swell
Dir  Spd
kts
Gust
kts
hPa Trend Height
m
Period
s
Dir
18/11:30pm 11.6 WSW 4 5 1017.5 - 0.0 - - 10 - - - -
18/11:00pm 12.3 SW 7 9 1017.4 - 0.0 - - 10 - - - -
18/10:30pm 12.9 SSW 6 9 1017.2 - 0.0 - - 10 - - - -
18/10:00pm 14.1 SSW 6 8 1016.9 - 0.0 - - 10 - - - -
18/09:30pm 14.9 SSW 10 12 1016.4 - 0.0 - - 10 - - - -
18/09:00pm 15.5 S 9 13 1015.8 - 0.0 - - 10 - - - -
18/08:30pm 16.7 S 11 14 1015.1 - 0.0 - - 10 - - - -
18/08:00pm 17.9 S 14 17 1014.5 - 0.0 - - 10 - - - -
18/07:30pm 19.0 S 17 21 1014.1 - 0.0 - - 10 - - - -
18/07:00pm 20.0 S 18 23 1013.7 - 0.0 - - 10 - - - -
18/06:30pm 20.8 S 18 23 1013.7 - 0.0 - - 10 - - - -
18/06:00pm 21.9 S 19 24 1013.5 - 0.0 - - 10 - - - -
18/05:30pm 21.7 S 19 24 1013.4 - 0.0 - - 10 - - - -
18/05:00pm 21.9 S 20 26 1013.3 - 0.0 - - 10 - - - -
18/04:30pm 22.3 S 18 24 1013.2 - 0.0 - - 10 - - - -
18/04:00pm 21.8 S 20 26 1013.3 - 0.0 - - 10 - - - -
18/03:30pm 22.7 S 19 25 1013.2 - 0.0 - Partly cloudy 10 - - - -
18/03:00pm 22.2 S 18 24 1013.2 - 0.0 - Partly cloudy 10 - - - -
18/02:30pm 22.3 S 16 22 1013.1 - 0.0 - Partly cloudy 10 - - - -
18/02:13pm 21.6 S 17 27 1013.0 - 0.0 - Partly cloudy 10 - - - -
18/02:00pm 23.3 SW 14 21 1013.0 - 0.0 - Partly cloudy 10 - - - -
18/01:30pm 24.9 WSW 12 24 1012.6 - 0.0 - Partly cloudy 10 - - - -
18/01:00pm 24.0 WSW 12 19 1012.6 - 0.0 - Cloudy 10 - - - -
18/12:30pm 21.8 WSW 13 18 1012.6 - 0.0 - Cloudy 10 - - - -
18/12:00pm 20.8 WSW 12 17 1012.4 - 0.0 - Cloudy 10 - - - -
18/11:30am 19.8 WSW 10 19 1012.4 - 0.0 - Cloudy 10 - - - -
18/11:00am 19.6 SW 13 17 1012.3 - 0.0 - Cloudy 10 - - - -
18/10:30am 18.7 SSW 13 20 1012.1 - 0.0 - Cloudy 10 - - - -
18/10:00am 18.6 SW 14 22 1011.8 - 0.0 - Cloudy 10 - - - -
18/09:30am 17.5 SW 17 22 1011.4 - 0.0 - Cloudy 10 - - - -
18/09:00am 17.7 SSW 17 23 1011.0 - 0.0 - Cloudy 10 - - - -
18/08:30am 18.3 SW 16 22 1010.2 - 0.0 - Cloudy 10 - - - -
18/08:00am 18.4 SW 17 23 1009.4 - 0.0 - Partly cloudy 10 - - - -
18/07:30am 19.3 SSW 14 19 1008.4 - 0.0 - - 10 - - - -
18/07:00am 20.5 SW 11 14 1007.7 - 0.0 - - 10 - - - -
18/06:30am 20.6 SSW 11 15 1006.9 - 0.0 - - 10 - - - -
18/06:22am 20.5 S 13 17 1006.9 - 0.0 - - 10 - - - -
18/06:00am 20.3 N 8 13 1004.9 - 0.0 - Cloudy 10 - - - -
18/05:30am 19.5 N 6 8 1006.0 - 0.0 - - 10 - - - -
18/05:00am 20.7 W 6 7 1007.0 - 0.0 - - 10 - - - -
18/04:30am 21.4 WSW 9 12 1007.5 - 0.0 - - 10 - - - -
18/04:00am 20.2 WNW 8 11 1007.5 - 0.0 - - 10 - - - -
18/03:30am 18.6 WNW 7 9 1007.4 - 0.0 - - 10 - - - -
18/03:00am 17.6 NW 5 7 1007.5 - 0.0 - Mostly clear 10 - - - -
18/02:30am 19.0 WNW 5 7 1007.6 - 0.0 - - 10 - - - -
18/02:00am 19.0 SW 5 6 1008.0 - 0.0 - - 10 - - - -
18/01:30am 20.3 SW 7 9 1008.2 - 0.0 - - 10 - - - -
18/01:00am 22.0 SSW 9 12 1008.3 - 0.0 - - 10 - - - -
18/12:30am 23.5 SSW 11 14 1008.1 - 0.0 - - 10 - - - -
18/12:00am 22.1 SSW 9 10 1007.8 - 0.0 - - 10 - - - -
 
Date/Time
EDT
Temp
°C
Wind Pressure Rain since
9am
mm
Weather Cloud Vis
km
Sea
Height
m
Swell
Dir  Spd
kts
Gust
kts
hPa Trend Height
m
Period
s
Dir
17/11:30pm 22.3 SSW 9 10 1007.6 - 0.0 - - 10 - - - -
17/11:00pm 23.2 S 6 7 1007.2 - 0.0 - - 10 - - - -
17/10:30pm 25.3 SE 6 7 1006.7 - 0.0 - - 10 - - - -
17/10:00pm 25.5 ESE 6 6 1006.6 - 0.0 - - 10 - - - -
17/09:30pm 26.1 E 6 7 1006.3 - 0.0 - - 10 - - - -
17/09:00pm 26.9 E 8 9 1006.1 - 0.0 - - 10 - - - -
17/08:30pm 27.2 ESE 7 8 1006.1 - 0.0 - - 10 - - - -
17/08:00pm 28.5 E 7 9 1006.0 - 0.0 - - 10 - - - -
17/07:30pm 29.5 ESE 9 12 1006.0 - 0.0 - - 10 - - - -
17/07:00pm 29.8 E 11 13 1006.1 - 0.0 - - 10 - - - -
17/06:30pm 30.6 ENE 10 12 1006.1 - 0.0 - - 10 - - - -
17/06:00pm 30.6 ENE 9 13 1006.2 - 0.0 - - 10 - - - -
17/05:30pm 31.2 E 8 13 1006.2 - 0.0 - - 10 - - - -
17/05:00pm 32.4 SSE 13 18 1006.1 - 0.0 - - 10 - - - -
17/04:30pm 31.5 SE 14 19 1006.2 - 0.0 - - 10 - - - -
17/04:00pm 32.7 SSE 16 21 1006.4 - 0.0 - - 10 - - - -
17/03:30pm 31.4 SSE 15 19 1006.5 - 0.0 - - 10 - - - -
17/03:00pm 32.0 SE 15 20 1006.7 - 0.0 - - 10 - - - -
17/02:30pm 33.9 ESE 11 14 1006.1 - 0.0 - - 10 - - - -
17/02:00pm 33.4 SE 11 15 1006.0 - 0.0 - - 10 - - - -
17/01:30pm 32.5 SE 13 16 1006.3 - 0.0 - - 10 - - - -
17/01:00pm 34.1 SE 13 19 1006.3 - 0.0 - - 10 - - - -
17/12:57pm 33.8 SSE 11 19 1006.2 - 0.0 - - 10 - - - -
17/12:30pm 39.1 NW 10 14 1006.4 - 0.0 - - 10 - - - -
17/12:00pm 37.6 N 8 13 1006.8 - 0.0 - - 10 - - - -
17/11:30am 33.6 S 5 8 1007.3 - 0.0 - - 10 - - - -
17/11:00am 32.6 SSE 5 7 1007.7 - 0.0 - - 10 - - - -
17/10:30am 30.7 S 11 16 1008.3 - 0.0 - - 10 - - - -
17/10:00am 34.2 NW 12 17 1008.4 - 0.0 - - 10 - - - -
17/09:30am 33.1 NNW 8 12 1008.4 - 0.0 - - 10 - - - -
17/09:27am 32.4 NNW 8 11 1008.3 - 0.0 - - 10 - - - -
17/09:00am 27.4 NNW 6 9 1008.5 - 0.0 - - 10 - - - -
17/08:30am 22.5 N 5 6 1008.5 - - - - 10 - - - -
17/08:00am 20.5 NNW 4 6 1008.5 - - - - 10 - - - -
17/07:30am 17.3 NNW 5 6 1008.3 - - - - 10 - - - -
17/07:00am 15.7 N 5 7 1008.0 - - - - 10 - - - -
17/06:30am 14.7 S 1 5 1007.7 - - - - 10 - - - -
17/06:00am 13.1 SSW 4 6 1007.7 - - - - 10 - - - -
17/05:30am 12.9 SW 5 6 1007.5 - - - - 10 - - - -
17/05:00am 14.4 SSW 4 8 1007.3 - - - - 10 - - - -
17/04:30am 14.0 N 4 5 1007.1 - - - - 10 - - - -
17/04:00am 15.0 NNW 4 5 1007.1 - - - - 10 - - - -
17/03:30am 13.4 NW 4 4 1007.4 - - - - 1 - - - -
17/03:21am 13.9 NW 4 5 1007.5 - - - - 5 - - - -
17/03:00am 14.6 NNW 5 6 1007.6 - 0.0 - - 9 - - - -
17/02:30am 14.5 NNW 5 6 1008.3 - - - - 9 - - - -
17/02:00am 16.4 N 7 8 1008.6 - - - - 10 - - - -
17/01:30am 15.0 NNW 4 5 1009.3 - - - - 10 - - - -
17/01:00am 16.4 N 3 4 1009.8 - - - - 10 - - - -
17/12:30am 17.1 NE 5 6 1010.0 - - - - 10 - - - -
17/12:00am 17.3 ENE 4 6 1010.6 - - - - 10 - - - -
 
Date/Time
EDT
Temp
°C
Wind Pressure Rain since
9am
mm
Weather Cloud Vis
km
Sea
Height
m
Swell
Dir  Spd
kts
Gust
kts
hPa Trend Height
m
Period
s
Dir
16/11:30pm 17.0 ENE 6 8 1010.9 - - - - 10 - - - -
16/11:00pm 17.5 ENE 5 7 1011.5 - - - - 10 - - - -
16/10:30pm 18.3 ENE 5 6 1012.1 - - - - 10 - - - -
16/10:00pm 18.1 E 5 6 1012.4 - - - - 10 - - - -
16/09:30pm 18.1 E 6 9 1012.6 - - - - 10 - - - -
16/09:00pm 18.2 ESE 7 9 1012.5 - 0.0 - - 10 - - - -
16/08:30pm 18.4 ESE 9 13 1012.0 - - - - 10 - - - -
16/08:00pm 19.4 ESE 9 11 1012.2 - - - - 10 - - - -
16/07:30pm 21.3 ESE 9 13 1012.0 - - - - 10 - - - -
16/07:00pm 21.8 ESE 10 13 1012.0 - - - - 10 - - - -
16/06:30pm 22.0 ESE 10 13 1012.1 - - - - 10 - - - -
16/06:00pm 22.9 ESE 9 13 1012.1 - - - - 10 - - - -

Other Formats:

Comma delimited format used in spreadsheet applications
http://www.bom.gov.au/fwo/IDV60701/IDV60701.94912.axf

JavaScript Object Notation format (JSON) in row-major order
http://www.bom.gov.au/fwo/IDV60701/IDV60701.94912.json